createdAt,value
2019-05-10T00:00:36.089Z,17.21
2019-05-10T00:03:27.562Z,17.22
2019-05-10T00:06:19.377Z,17.30
2019-05-10T00:08:52.107Z,17.20
2019-05-10T00:11:44.448Z,17.24
2019-05-10T00:14:38.420Z,17.27
2019-05-10T00:17:29.171Z,17.23
2019-05-10T00:20:01.010Z,17.27
2019-05-10T00:22:37.295Z,17.20
2019-05-10T00:25:11.521Z,17.24
2019-05-10T00:27:43.552Z,17.26
2019-05-10T00:30:17.313Z,17.31
2019-05-10T00:32:49.182Z,17.27
2019-05-10T00:35:21.089Z,17.21
2019-05-10T00:37:52.954Z,17.16
2019-05-10T00:40:25.604Z,17.13
2019-05-10T00:43:17.351Z,17.17
2019-05-10T00:45:57.475Z,17.23
2019-05-10T00:48:35.151Z,17.20
2019-05-10T00:51:11.603Z,17.22
2019-05-10T00:53:44.381Z,17.19
2019-05-10T00:56:18.098Z,17.26
2019-05-10T00:58:50.067Z,17.21
2019-05-10T01:01:30.563Z,17.17
2019-05-10T01:04:05.644Z,17.17
2019-05-10T01:06:44.031Z,17.13
2019-05-10T01:09:16.512Z,17.13
2019-05-10T01:11:48.392Z,17.18
2019-05-10T01:14:20.372Z,17.24
2019-05-10T01:16:59.168Z,17.28
2019-05-10T01:19:31.255Z,17.28
2019-05-10T01:22:03.564Z,17.36
2019-05-10T01:24:38.187Z,17.23
2019-05-10T01:27:12.718Z,17.20
2019-05-10T01:29:44.596Z,17.19
2019-05-10T01:32:16.460Z,17.16
2019-05-10T01:34:49.197Z,17.17
2019-05-10T01:37:21.200Z,17.13
2019-05-10T01:39:55.453Z,17.13
2019-05-10T01:42:27.362Z,17.12
2019-05-10T01:45:01.194Z,17.13
2019-05-10T01:47:37.554Z,17.04
2019-05-10T01:50:09.615Z,17.03
2019-05-10T01:52:44.677Z,17.01
2019-05-10T01:55:25.856Z,16.98
2019-05-10T01:57:58.189Z,16.81
2019-05-10T02:00:30.066Z,16.96
2019-05-10T02:03:02.259Z,16.91
2019-05-10T02:05:34.194Z,16.92
2019-05-10T02:08:06.286Z,16.92
2019-05-10T02:10:41.461Z,16.82
2019-05-10T02:13:13.357Z,16.90
2019-05-10T02:15:45.548Z,16.89
2019-05-10T02:18:17.463Z,16.94
2019-05-10T02:20:49.422Z,16.84
2019-05-10T02:23:21.316Z,16.83
2019-05-10T02:26:08.460Z,16.88
2019-05-10T02:28:27.148Z,16.88
2019-05-10T02:30:59.109Z,16.87
2019-05-10T02:33:31.454Z,16.92
2019-05-10T02:36:03.570Z,16.85
2019-05-10T02:38:36.538Z,16.83
2019-05-10T02:41:08.501Z,16.91
2019-05-10T02:43:40.630Z,16.84
2019-05-10T02:46:12.480Z,16.84
2019-05-10T02:48:44.743Z,16.85
2019-05-10T02:51:16.648Z,16.91
2019-05-10T02:53:48.619Z,16.91
2019-05-10T02:56:30.417Z,16.87
2019-05-10T02:58:59.731Z,16.86
2019-05-10T03:01:33.216Z,16.83
2019-05-10T03:04:05.341Z,16.83
2019-05-10T03:06:38.922Z,16.83
2019-05-10T03:09:11.050Z,16.88
2019-05-10T03:11:49.913Z,16.87
2019-05-10T03:14:23.393Z,16.84
2019-05-10T03:16:55.289Z,16.90
2019-05-10T03:19:30.379Z,16.88
2019-05-10T03:22:06.881Z,16.97
2019-05-10T03:24:41.666Z,16.93
2019-05-10T03:27:13.670Z,16.89
2019-05-10T03:29:46.564Z,16.74
2019-05-10T03:32:18.602Z,16.94
2019-05-10T03:34:50.731Z,16.84
2019-05-10T03:37:22.707Z,16.84
2019-05-10T03:39:54.688Z,16.80
2019-05-10T03:42:26.827Z,16.74
2019-05-10T03:44:59.197Z,16.76
2019-05-10T03:47:31.127Z,16.90
2019-05-10T03:50:03.230Z,16.79
2019-05-10T03:52:35.206Z,16.97
2019-05-10T03:55:08.822Z,16.90
2019-05-10T03:57:41.111Z,16.89
2019-05-10T04:00:14.578Z,16.84
2019-05-10T04:02:48.079Z,16.85
2019-05-10T04:05:20.044Z,16.78
2019-05-10T04:07:52.215Z,16.86
2019-05-10T04:10:24.128Z,16.66
2019-05-10T04:12:56.045Z,16.65
2019-05-10T04:15:28.225Z,16.57
2019-05-10T04:18:00.148Z,16.53
2019-05-10T04:20:32.421Z,16.52
2019-05-10T04:23:04.503Z,16.52
2019-05-10T04:25:36.531Z,16.58
2019-05-10T04:28:08.435Z,16.50
2019-05-10T04:30:40.441Z,16.51
2019-05-10T04:33:14.798Z,16.53
2019-05-10T04:35:47.167Z,16.57
2019-05-10T04:38:19.037Z,16.52
2019-05-10T04:40:51.401Z,16.47
2019-05-10T04:43:23.355Z,16.45
2019-05-10T04:45:58.465Z,16.42
2019-05-10T04:48:33.658Z,16.41
2019-05-10T04:51:06.961Z,16.46
2019-05-10T04:53:38.846Z,16.48
2019-05-10T04:56:10.761Z,16.48
2019-05-10T04:58:42.933Z,16.43
2019-05-10T05:01:14.914Z,16.49
2019-05-10T05:03:47.484Z,16.45
2019-05-10T05:06:19.878Z,16.46
2019-05-10T05:08:52.079Z,16.49
2019-05-10T05:11:24.107Z,16.52
2019-05-10T05:13:56.125Z,16.50
2019-05-10T05:16:28.057Z,16.50
2019-05-10T05:19:01.336Z,16.41
2019-05-10T05:21:33.475Z,16.41
2019-05-10T05:24:05.513Z,16.41
2019-05-10T05:26:37.676Z,16.37
2019-05-10T05:29:09.608Z,16.42
2019-05-10T05:31:46.142Z,16.38
2019-05-10T05:34:18.106Z,16.38
2019-05-10T05:36:50.094Z,16.39
2019-05-10T05:39:22.340Z,16.36
2019-05-10T05:41:56.618Z,16.52
2019-05-10T05:44:28.098Z,16.58
2019-05-10T05:47:00.050Z,16.58
2019-05-10T05:49:31.977Z,16.48
2019-05-10T05:52:04.333Z,16.50
2019-05-10T05:54:36.232Z,16.41
2019-05-10T05:57:08.861Z,16.39
2019-05-10T05:59:41.888Z,16.41
2019-05-10T06:02:16.352Z,16.42
2019-05-10T06:04:49.582Z,16.41
2019-05-10T06:07:23.292Z,16.42
2019-05-10T06:09:57.299Z,16.33
2019-05-10T06:12:29.254Z,16.41
2019-05-10T06:15:01.227Z,16.40
2019-05-10T06:17:34.429Z,16.36
2019-05-10T06:20:09.451Z,16.56
2019-05-10T06:22:45.610Z,16.60
2019-05-10T06:25:15.018Z,16.54
2019-05-10T06:27:47.122Z,16.58
2019-05-10T06:30:19.355Z,16.38
2019-05-10T06:32:53.124Z,16.46
2019-05-10T06:35:25.469Z,16.51
2019-05-10T06:37:57.521Z,16.48
2019-05-10T06:40:34.751Z,16.45
2019-05-10T06:43:06.920Z,16.62
2019-05-10T06:45:36.814Z,16.54
2019-05-10T06:48:08.890Z,16.55
2019-05-10T06:50:41.094Z,16.53
2019-05-10T06:53:13.235Z,16.47
2019-05-10T06:55:45.146Z,16.67
2019-05-10T06:58:17.043Z,16.65
2019-05-10T07:00:50.716Z,16.66
2019-05-10T07:03:22.592Z,16.70
2019-05-10T07:05:56.156Z,16.72
2019-05-10T07:08:42.367Z,16.62
2019-05-10T07:11:02.587Z,16.44
2019-05-10T07:13:34.604Z,16.54
2019-05-10T07:16:06.878Z,16.45
2019-05-10T07:18:38.730Z,16.47
2019-05-10T07:21:14.540Z,16.69
2019-05-10T07:24:07.953Z,17.00
2019-05-10T07:26:40.164Z,17.01
2019-05-10T07:29:29.021Z,16.91
2019-05-10T07:31:50.029Z,16.80
2019-05-10T07:34:21.885Z,16.68
2019-05-10T07:36:53.930Z,16.69
2019-05-10T07:39:27.023Z,16.59
2019-05-10T07:42:00.548Z,16.68
2019-05-10T07:44:32.642Z,16.75
2019-05-10T07:47:05.840Z,16.73
2019-05-10T07:49:38.122Z,16.78
2019-05-10T07:52:10.209Z,17.02
2019-05-10T07:54:45.194Z,17.15
2019-05-10T07:57:18.700Z,17.42
2019-05-10T07:59:57.602Z,17.40
2019-05-10T08:02:29.223Z,17.62
2019-05-10T08:05:04.881Z,17.64
2019-05-10T08:07:35.455Z,17.71
2019-05-10T08:10:08.738Z,17.66
2019-05-10T08:12:45.617Z,18.02
2019-05-10T08:15:19.497Z,17.99
2019-05-10T08:17:51.914Z,17.97
2019-05-10T08:20:38.204Z,17.54
2019-05-10T08:22:58.104Z,17.87
2019-05-10T08:25:39.643Z,17.87
2019-05-10T08:28:05.524Z,18.08
2019-05-10T08:30:51.337Z,18.05
2019-05-10T08:33:16.508Z,18.01
2019-05-10T08:35:54.539Z,17.99
2019-05-10T08:38:22.407Z,18.24
2019-05-10T08:40:57.253Z,18.22
2019-05-10T08:43:30.877Z,18.24
2019-05-10T08:46:03.233Z,18.24
2019-05-10T08:48:38.229Z,18.27
2019-05-10T08:51:08.739Z,18.48
2019-05-10T08:53:42.114Z,18.68
2019-05-10T08:56:20.823Z,19.13
2019-05-10T08:58:48.376Z,19.37
2019-05-10T09:01:27.546Z,19.16
2019-05-10T09:03:59.385Z,19.14
2019-05-10T09:06:28.040Z,18.92
2019-05-10T09:09:02.011Z,19.14
2019-05-10T09:11:34.258Z,19.19
2019-05-10T09:14:06.497Z,19.42
2019-05-10T09:16:43.472Z,20.03
2019-05-10T09:19:12.554Z,20.00
2019-05-10T09:21:49.947Z,20.67
2019-05-10T09:24:18.333Z,21.31
2019-05-10T09:26:56.697Z,21.22
2019-05-10T09:29:27.300Z,22.35
2019-05-10T09:32:05.809Z,23.80
2019-05-10T09:34:34.646Z,24.91
2019-05-10T09:37:08.268Z,25.98
2019-05-10T09:39:42.454Z,27.32
2019-05-10T09:42:24.882Z,27.01
2019-05-10T09:44:49.355Z,26.82
2019-05-10T09:47:22.174Z,27.13
2019-05-10T09:49:58.635Z,26.79
2019-05-10T09:52:27.718Z,25.01
2019-05-10T09:55:04.103Z,23.77
2019-05-10T09:57:33.613Z,23.11
2019-05-10T10:00:07.392Z,22.35
2019-05-10T10:02:40.470Z,21.58
2019-05-10T10:05:13.260Z,21.05
2019-05-10T10:07:45.144Z,21.39
2019-05-10T10:10:28.541Z,21.64
2019-05-10T10:12:51.660Z,21.85
2019-05-10T10:15:32.119Z,21.69
2019-05-10T10:17:58.531Z,21.02
2019-05-10T10:20:35.931Z,20.58
2019-05-10T10:23:07.547Z,21.01
2019-05-10T10:25:40.797Z,21.47
2019-05-10T10:28:22.528Z,21.32
2019-05-10T10:30:50.496Z,21.86
2019-05-10T10:33:25.291Z,22.97
2019-05-10T10:36:04.973Z,25.05
2019-05-10T10:38:31.413Z,26.63
2019-05-10T10:41:03.796Z,26.97
2019-05-10T10:43:37.040Z,25.96
2019-05-10T10:46:12.493Z,24.82
2019-05-10T10:48:49.313Z,25.29
2019-05-10T10:51:19.613Z,26.76
2019-05-10T10:53:54.649Z,28.41
2019-05-10T10:56:27.518Z,28.69
2019-05-10T10:58:59.035Z,29.08
2019-05-10T11:01:46.308Z,27.74
2019-05-10T11:04:08.105Z,27.73
2019-05-10T11:06:40.394Z,27.43
2019-05-10T11:09:12.514Z,26.47
2019-05-10T11:11:44.961Z,27.08
2019-05-10T11:14:16.872Z,26.14
2019-05-10T11:16:55.391Z,25.71
2019-05-10T11:19:22.833Z,25.25
2019-05-10T11:21:54.850Z,24.54
2019-05-10T11:24:26.851Z,24.30
2019-05-10T11:27:00.961Z,23.84
2019-05-10T11:29:32.755Z,23.79
2019-05-10T11:32:15.351Z,24.82
2019-05-10T11:34:41.722Z,24.03
2019-05-10T11:37:16.135Z,25.23
2019-05-10T11:39:50.446Z,24.80
2019-05-10T11:42:22.026Z,24.84
2019-05-10T11:44:54.729Z,24.45
2019-05-10T11:47:27.489Z,24.06
2019-05-10T11:50:05.818Z,23.61
2019-05-10T11:52:34.762Z,23.17
2019-05-10T11:55:06.974Z,23.62
2019-05-10T11:57:43.813Z,22.66
2019-05-10T12:00:24.524Z,23.26
2019-05-10T12:03:06.682Z,23.62
2019-05-10T12:05:26.372Z,23.82
2019-05-10T12:07:56.781Z,24.34
2019-05-10T12:10:28.763Z,24.94
2019-05-10T12:13:14.862Z,24.99
2019-05-10T12:15:35.730Z,24.86
2019-05-10T12:18:07.944Z,25.26
2019-05-10T12:20:55.647Z,24.51
2019-05-10T12:23:22.648Z,24.48
2019-05-10T12:26:18.752Z,24.32
2019-05-10T12:28:29.064Z,24.65
2019-05-10T12:31:02.371Z,24.91
2019-05-10T12:33:35.645Z,25.82
2019-05-10T12:36:13.101Z,25.96
2019-05-10T12:38:41.526Z,24.97
2019-05-10T12:41:13.476Z,24.28
2019-05-10T12:43:48.309Z,24.20
2019-05-10T12:46:20.661Z,24.49
2019-05-10T12:48:52.636Z,24.01
2019-05-10T12:51:24.502Z,24.73
2019-05-10T12:53:56.349Z,24.92
2019-05-10T12:56:28.217Z,24.82
2019-05-10T12:59:01.223Z,24.11
2019-05-10T13:01:33.335Z,23.95
2019-05-10T13:04:13.835Z,23.99
2019-05-10T13:06:41.158Z,24.47
2019-05-10T13:09:14.060Z,24.27
2019-05-10T13:11:46.150Z,23.67
2019-05-10T13:14:18.579Z,23.64
2019-05-10T13:16:50.755Z,23.84
2019-05-10T13:19:22.695Z,23.95
2019-05-10T13:21:58.875Z,24.16
2019-05-10T13:24:29.315Z,24.64
2019-05-10T13:27:03.514Z,25.07
2019-05-10T13:29:34.926Z,24.69
2019-05-10T13:32:06.914Z,24.82
2019-05-10T13:34:40.646Z,25.16
2019-05-10T13:37:22.764Z,25.26
2019-05-10T13:39:46.461Z,24.99
2019-05-10T13:42:18.321Z,25.74
2019-05-10T13:44:50.381Z,25.66
2019-05-10T13:47:22.262Z,25.17
2019-05-10T13:49:54.174Z,25.31
2019-05-10T13:52:29.870Z,24.03
2019-05-10T13:54:59.925Z,23.64
2019-05-10T13:57:31.947Z,23.57
2019-05-10T14:00:04.141Z,23.32
2019-05-10T14:02:39.499Z,23.34
2019-05-10T14:05:17.141Z,23.74
2019-05-10T14:07:52.269Z,24.25
2019-05-10T14:10:23.402Z,24.63
2019-05-10T14:12:56.015Z,24.39
2019-05-10T14:15:30.380Z,24.39
2019-05-10T14:18:02.334Z,24.39
2019-05-10T14:20:34.192Z,23.77
2019-05-10T14:23:06.210Z,24.20
2019-05-10T14:25:39.070Z,24.17
2019-05-10T14:28:15.889Z,24.37
2019-05-10T14:30:56.647Z,23.16
2019-05-10T14:33:20.455Z,22.90
2019-05-10T14:35:55.172Z,22.43
2019-05-10T14:38:25.952Z,22.08
2019-05-10T14:40:57.913Z,22.38
2019-05-10T14:43:29.959Z,22.80
2019-05-10T14:46:04.408Z,23.24
2019-05-10T14:48:37.338Z,23.38
2019-05-10T14:51:11.639Z,23.36
2019-05-10T14:53:43.015Z,23.57
2019-05-10T14:56:15.411Z,23.55
2019-05-10T14:58:47.456Z,22.90
2019-05-10T15:01:25.047Z,22.08
2019-05-10T15:03:57.006Z,22.14
2019-05-10T15:06:30.737Z,22.32
2019-05-10T15:09:02.516Z,22.31
2019-05-10T15:11:34.977Z,22.52
2019-05-10T15:14:07.205Z,22.95
2019-05-10T15:16:39.063Z,23.12
2019-05-10T15:19:11.009Z,23.19
2019-05-10T15:21:42.941Z,23.27
2019-05-10T15:24:14.801Z,23.23
2019-05-10T15:26:46.663Z,23.23
2019-05-10T15:29:22.406Z,23.27
2019-05-10T15:31:52.428Z,23.33
2019-05-10T15:34:24.639Z,22.76
2019-05-10T15:37:02.496Z,22.69
2019-05-10T15:39:30.883Z,23.04
2019-05-10T15:42:03.254Z,22.77
2019-05-10T15:44:35.620Z,22.76
2019-05-10T15:47:14.687Z,22.86
2019-05-10T15:49:41.191Z,23.18
2019-05-10T15:52:17.928Z,23.00
2019-05-10T15:54:47.165Z,22.92
2019-05-10T15:57:21.827Z,22.83
2019-05-10T15:59:56.836Z,22.73
2019-05-10T16:02:27.731Z,22.85
2019-05-10T16:05:01.325Z,22.63
2019-05-10T16:07:33.641Z,22.58
2019-05-10T16:10:06.228Z,22.13
2019-05-10T16:12:42.994Z,22.16
2019-05-10T16:15:19.904Z,22.29
2019-05-10T16:17:53.340Z,22.41
2019-05-10T16:20:22.346Z,22.46
2019-05-10T16:22:54.436Z,22.09
2019-05-10T16:25:32.831Z,21.48
2019-05-10T16:28:04.774Z,21.18
2019-05-10T16:33:15.717Z,21.44
2019-05-10T16:35:49.510Z,21.95
2019-05-10T16:38:18.390Z,22.01
2019-05-10T16:40:58.508Z,21.87
2019-05-10T16:43:26.106Z,22.15
2019-05-10T16:45:59.472Z,21.93
2019-05-10T16:48:33.853Z,22.04
2019-05-10T16:51:09.842Z,22.06
2019-05-10T16:53:43.648Z,21.98
2019-05-10T16:56:18.689Z,21.81
2019-05-10T16:58:52.418Z,21.82
2019-05-10T17:01:24.972Z,21.67
2019-05-10T17:03:59.837Z,21.56
2019-05-10T17:06:28.393Z,21.77
2019-05-10T17:09:00.322Z,21.83
2019-05-10T17:11:33.787Z,21.78
2019-05-10T17:14:05.753Z,21.35
2019-05-10T17:16:39.708Z,21.29
2019-05-10T17:19:11.570Z,21.54
2019-05-10T17:21:43.670Z,21.77
2019-05-10T17:24:18.713Z,22.10
2019-05-10T17:26:49.813Z,21.36
2019-05-10T17:29:21.729Z,21.11
2019-05-10T17:31:53.928Z,20.97
2019-05-10T17:34:29.521Z,21.00
2019-05-10T17:36:59.857Z,21.08
2019-05-10T17:39:34.154Z,20.99
2019-05-10T17:42:06.059Z,21.05
2019-05-10T17:44:43.572Z,20.88
2019-05-10T17:47:16.420Z,21.08
2019-05-10T17:49:48.322Z,20.97
2019-05-10T17:52:21.313Z,21.19
2019-05-10T17:54:57.141Z,21.30
2019-05-10T17:57:31.325Z,21.22
2019-05-10T18:00:03.398Z,21.18
2019-05-10T18:02:36.811Z,20.96
2019-05-10T18:05:09.211Z,21.11
2019-05-10T18:07:42.342Z,20.52
2019-05-10T18:10:14.517Z,20.39
2019-05-10T18:12:46.470Z,20.40
2019-05-10T18:15:18.552Z,19.97
2019-05-10T18:17:50.427Z,19.75
2019-05-10T18:20:23.083Z,19.47
2019-05-10T18:22:55.798Z,19.43
2019-05-10T18:25:27.737Z,19.56
2019-05-10T18:28:01.430Z,19.44
2019-05-10T18:30:35.155Z,19.34
2019-05-10T18:33:12.249Z,19.35
2019-05-10T18:35:41.976Z,19.38
2019-05-10T18:38:13.862Z,19.21
2019-05-10T18:40:45.743Z,19.26
2019-05-10T18:43:19.178Z,19.14
2019-05-10T18:45:51.254Z,19.20
2019-05-10T18:48:25.978Z,19.15
2019-05-10T18:50:58.356Z,19.00
2019-05-10T18:53:32.825Z,18.97
2019-05-10T18:56:04.820Z,18.81
2019-05-10T18:58:41.799Z,18.90
2019-05-10T19:01:16.261Z,18.82
2019-05-10T19:03:48.333Z,18.65
2019-05-10T19:06:20.366Z,18.45
2019-05-10T19:08:53.929Z,18.53
2019-05-10T19:11:25.900Z,18.43
2019-05-10T19:14:15.723Z,18.22
2019-05-10T19:16:49.402Z,18.15
2019-05-10T19:19:21.443Z,18.09
2019-05-10T19:21:53.488Z,18.04
2019-05-10T19:24:31.946Z,18.00
2019-05-10T19:27:07.312Z,17.87
2019-05-10T19:29:45.373Z,17.75
2019-05-10T19:32:18.213Z,17.76
2019-05-10T19:34:57.346Z,17.61
2019-05-10T19:37:30.027Z,17.50
2019-05-10T19:40:01.113Z,17.55
2019-05-10T19:42:37.083Z,17.48
2019-05-10T19:45:07.325Z,17.47
2019-05-10T19:47:39.335Z,17.40
2019-05-10T19:50:11.560Z,17.44
2019-05-10T19:52:43.542Z,17.46
2019-05-10T19:55:19.394Z,17.38
2019-05-10T19:57:54.507Z,17.24
2019-05-10T20:00:24.102Z,17.27
2019-05-10T20:02:56.107Z,17.27
2019-05-10T20:05:29.326Z,17.19
2019-05-10T20:08:01.266Z,17.28
2019-05-10T20:10:35.549Z,17.23
2019-05-10T20:13:07.567Z,17.18
2019-05-10T20:15:39.833Z,17.13
2019-05-10T20:18:11.855Z,17.30
2019-05-10T20:20:44.873Z,17.26
2019-05-10T20:23:16.806Z,17.22
2019-05-10T20:25:48.678Z,17.24
2019-05-10T20:28:21.288Z,17.27
2019-05-10T20:30:53.578Z,17.24
2019-05-10T20:33:25.989Z,17.27
2019-05-10T20:35:59.783Z,17.16
2019-05-10T20:38:33.078Z,17.18
2019-05-10T20:41:05.210Z,17.18
2019-05-10T20:43:37.355Z,17.22
2019-05-10T20:46:12.308Z,17.17
2019-05-10T20:48:44.684Z,17.05
2019-05-10T20:51:16.703Z,17.13
2019-05-10T20:53:48.781Z,17.14
2019-05-10T20:56:22.351Z,17.18
2019-05-10T20:58:55.503Z,17.16
2019-05-10T21:01:28.219Z,17.07
2019-05-10T21:04:00.560Z,17.12
2019-05-10T21:06:34.503Z,17.11
2019-05-10T21:09:07.120Z,17.09
2019-05-10T21:11:39.203Z,17.09
2019-05-10T21:14:11.150Z,17.14
2019-05-10T21:16:44.201Z,17.11
2019-05-10T21:19:19.660Z,17.06
2019-05-10T21:21:49.736Z,17.00
2019-05-10T21:24:21.759Z,17.04
2019-05-10T21:26:53.746Z,17.14
2019-05-10T21:29:25.787Z,17.10
2019-05-10T21:31:57.814Z,17.14
2019-05-10T21:34:29.720Z,17.14
2019-05-10T21:37:01.973Z,17.22
2019-05-10T21:39:34.493Z,17.18
2019-05-10T21:42:09.452Z,17.21
2019-05-10T21:44:41.570Z,17.18
2019-05-10T21:47:13.629Z,17.20
2019-05-10T21:49:45.931Z,17.06
2019-05-10T21:52:17.980Z,17.08
2019-05-10T21:54:49.923Z,17.05
2019-05-10T21:57:21.874Z,17.16
2019-05-10T21:59:53.795Z,17.15
2019-05-10T22:02:26.100Z,17.12
2019-05-10T22:04:58.081Z,17.16
2019-05-10T22:07:30.078Z,17.09
2019-05-10T22:10:01.968Z,17.13
2019-05-10T22:12:34.014Z,17.05
2019-05-10T22:15:08.796Z,17.02
2019-05-10T22:17:40.681Z,16.95
2019-05-10T22:20:13.171Z,16.94
2019-05-10T22:22:45.295Z,16.85
2019-05-10T22:25:17.360Z,16.91
2019-05-10T22:27:49.320Z,16.89
2019-05-10T22:30:21.332Z,16.79
2019-05-10T22:32:53.638Z,16.74
2019-05-10T22:35:25.667Z,16.68
2019-05-10T22:37:57.555Z,16.75
2019-05-10T22:40:29.649Z,16.63
2019-05-10T22:43:01.548Z,16.60
2019-05-10T22:45:33.789Z,16.53
2019-05-10T22:48:05.899Z,16.61
2019-05-10T22:50:37.811Z,16.47
2019-05-10T22:53:09.758Z,16.53
2019-05-10T22:55:42.486Z,16.44
2019-05-10T22:58:14.409Z,16.33
2019-05-10T23:00:46.386Z,16.21
2019-05-10T23:03:18.343Z,16.27
2019-05-10T23:05:50.255Z,16.16
2019-05-10T23:08:24.387Z,16.01
2019-05-10T23:10:56.471Z,16.09
2019-05-10T23:13:28.562Z,15.92
2019-05-10T23:16:00.448Z,15.94
2019-05-10T23:18:32.437Z,15.84
2019-05-10T23:21:04.479Z,15.95
2019-05-10T23:23:36.386Z,15.89
2019-05-10T23:26:08.319Z,15.70
2019-05-10T23:28:40.277Z,15.49
2019-05-10T23:31:12.383Z,15.78
2019-05-10T23:33:44.380Z,15.61
2019-05-10T23:36:16.823Z,15.64
2019-05-10T23:39:00.913Z,15.68
2019-05-10T23:41:34.708Z,15.78
2019-05-10T23:44:06.886Z,15.85
2019-05-10T23:46:39.212Z,15.86
2019-05-10T23:49:13.050Z,15.83
2019-05-10T23:51:45.025Z,15.85
2019-05-10T23:54:17.059Z,15.93
2019-05-10T23:56:48.962Z,15.85
2019-05-10T23:59:23.330Z,15.93
